createdAt,value
2023-02-13T00:02:16.820Z,34.95
2023-02-13T00:04:49.039Z,34.99
2023-02-13T00:07:20.956Z,34.98
2023-02-13T00:09:52.833Z,35.02
2023-02-13T00:12:24.766Z,35.07
2023-02-13T00:14:56.688Z,35.02
2023-02-13T00:17:28.659Z,35.05
2023-02-13T00:20:00.554Z,35.09
2023-02-13T00:22:36.302Z,35.10
2023-02-13T00:25:08.672Z,35.17
2023-02-13T00:27:40.666Z,35.19
2023-02-13T00:30:13.064Z,35.23
2023-02-13T00:32:45.047Z,35.24
2023-02-13T00:35:17.035Z,35.21
2023-02-13T00:37:49.013Z,35.22
2023-02-13T00:40:21.045Z,35.23
2023-02-13T00:42:53.033Z,35.26
2023-02-13T00:45:25.012Z,35.29
2023-02-13T00:47:56.979Z,35.28
2023-02-13T00:50:28.929Z,35.31
2023-02-13T00:53:00.796Z,35.31
2023-02-13T00:55:33.215Z,35.39
2023-02-13T00:58:05.231Z,35.39
2023-02-13T01:00:38.065Z,35.39
2023-02-13T01:03:10.498Z,35.44
2023-02-13T01:05:43.475Z,35.47
2023-02-13T01:08:16.675Z,35.48
2023-02-13T01:10:49.165Z,35.51
2023-02-13T01:13:21.106Z,35.52
2023-02-13T01:15:53.070Z,35.58
2023-02-13T01:18:25.073Z,35.56
2023-02-13T01:21:01.849Z,35.62
2023-02-13T01:23:36.004Z,35.68
2023-02-13T01:26:09.520Z,35.66
2023-02-13T01:28:41.623Z,35.74
2023-02-13T01:31:16.675Z,35.71
2023-02-13T01:33:48.655Z,35.73
2023-02-13T01:36:20.663Z,35.72
2023-02-13T01:38:54.629Z,35.88
2023-02-13T01:41:28.255Z,35.87
2023-02-13T01:44:02.352Z,35.80
2023-02-13T01:46:37.954Z,35.86
2023-02-13T01:49:18.813Z,35.91
2023-02-13T01:51:53.980Z,35.98
2023-02-13T01:54:31.580Z,35.97
2023-02-13T01:57:15.615Z,36.03
2023-02-13T02:00:04.165Z,36.05
2023-02-13T02:02:57.991Z,36.07
2023-02-13T02:05:32.410Z,35.98
2023-02-13T02:08:07.422Z,36.02
2023-02-13T02:10:41.084Z,36.02
2023-02-13T02:13:15.914Z,36.08
2023-02-13T02:15:49.533Z,36.06
2023-02-13T02:18:23.593Z,36.12
2023-02-13T02:21:11.056Z,36.18
2023-02-13T02:23:55.340Z,36.22
2023-02-13T02:27:05.418Z,36.26
2023-02-13T02:30:11.991Z,36.26
2023-02-13T02:32:57.267Z,36.26
2023-02-13T02:35:38.472Z,36.26
2023-02-13T02:39:05.402Z,36.28
2023-02-13T02:41:41.949Z,36.40
2023-02-13T02:44:23.871Z,36.34
2023-02-13T02:47:36.551Z,36.37
2023-02-13T02:50:16.961Z,36.53
2023-02-13T02:53:04.859Z,36.40
2023-02-13T02:55:59.281Z,36.42
2023-02-13T02:58:51.483Z,36.50
2023-02-13T03:01:46.271Z,36.52
2023-02-13T03:05:02.838Z,36.52
2023-02-13T03:07:34.749Z,36.61
2023-02-13T03:10:35.197Z,36.47
2023-02-13T03:13:22.895Z,36.58
2023-02-13T03:16:18.603Z,36.59
2023-02-13T03:19:15.439Z,36.71
2023-02-13T03:22:08.817Z,36.81
2023-02-13T03:24:50.173Z,36.99
2023-02-13T03:27:46.825Z,36.77
2023-02-13T03:30:49.396Z,36.70
2023-02-13T03:33:52.101Z,36.62
2023-02-13T03:36:57.963Z,36.43
2023-02-13T03:40:07.867Z,36.31
2023-02-13T03:42:50.369Z,36.06
2023-02-13T03:45:46.762Z,35.77
2023-02-13T03:48:46.395Z,35.52
2023-02-13T03:51:27.729Z,35.18
2023-02-13T03:54:23.890Z,34.84
2023-02-13T03:57:14.543Z,34.52
2023-02-13T03:59:46.547Z,34.18
2023-02-13T04:02:23.012Z,33.88
2023-02-13T04:05:05.225Z,33.61
2023-02-13T04:07:37.229Z,33.38
2023-02-13T04:10:11.634Z,33.21
2023-02-13T04:13:05.223Z,33.07
2023-02-13T04:15:46.483Z,32.89
2023-02-13T04:18:23.748Z,32.79
2023-02-13T04:20:55.857Z,32.69
2023-02-13T04:23:28.192Z,32.63
2023-02-13T04:26:03.776Z,32.56
2023-02-13T04:28:35.732Z,32.49
2023-02-13T04:31:07.795Z,32.46
2023-02-13T04:33:39.788Z,32.42
2023-02-13T04:36:11.702Z,32.43
2023-02-13T04:38:43.599Z,32.39
2023-02-13T04:41:15.589Z,32.35
2023-02-13T04:43:47.566Z,32.36
2023-02-13T04:46:19.590Z,32.35
2023-02-13T04:48:51.550Z,32.35
2023-02-13T04:51:23.487Z,32.37
2023-02-13T04:53:55.513Z,32.36
2023-02-13T04:56:27.396Z,32.42
2023-02-13T04:58:59.338Z,32.40
2023-02-13T05:01:31.974Z,32.42
2023-02-13T05:04:04.304Z,32.41
2023-02-13T05:06:36.252Z,32.41
2023-02-13T05:09:08.467Z,32.44
2023-02-13T05:11:40.458Z,32.44
2023-02-13T05:14:12.486Z,32.42
2023-02-13T05:16:44.512Z,32.37
2023-02-13T05:19:17.158Z,32.30
2023-02-13T05:22:12.158Z,32.17
2023-02-13T05:24:44.055Z,32.05
2023-02-13T05:27:15.987Z,31.91
2023-02-13T05:29:47.867Z,31.75
2023-02-13T05:32:19.821Z,31.58
2023-02-13T05:34:51.765Z,31.41
2023-02-13T05:37:23.680Z,31.27
2023-02-13T05:39:55.575Z,31.12
2023-02-13T05:42:27.569Z,30.99
2023-02-13T05:44:59.508Z,30.85
2023-02-13T05:47:31.408Z,30.75
2023-02-13T05:50:03.345Z,30.62
2023-02-13T05:52:35.281Z,30.54
2023-02-13T05:55:07.821Z,30.47
2023-02-13T05:57:39.697Z,30.41
2023-02-13T06:00:12.214Z,30.38
2023-02-13T06:02:44.096Z,30.33
2023-02-13T06:05:16.784Z,30.29
2023-02-13T06:07:48.665Z,30.30
2023-02-13T06:10:20.745Z,30.28
2023-02-13T06:12:52.591Z,30.27
2023-02-13T06:15:24.531Z,30.28
2023-02-13T06:17:56.602Z,30.33
2023-02-13T06:20:28.607Z,30.34
2023-02-13T06:23:00.613Z,30.34
2023-02-13T06:25:32.483Z,30.36
2023-02-13T06:28:05.444Z,30.35
2023-02-13T06:30:37.329Z,30.34
2023-02-13T06:33:09.458Z,30.37
2023-02-13T06:35:41.368Z,30.46
2023-02-13T06:38:13.333Z,30.45
2023-02-13T06:40:47.188Z,30.51
2023-02-13T06:43:19.550Z,30.52
2023-02-13T06:45:52.255Z,30.61
2023-02-13T06:48:24.280Z,30.63
2023-02-13T06:50:56.513Z,30.72
2023-02-13T06:53:29.572Z,30.73
2023-02-13T06:56:03.761Z,30.79
2023-02-13T06:58:35.812Z,30.81
2023-02-13T07:01:07.820Z,30.91
2023-02-13T07:03:39.745Z,30.94
2023-02-13T07:06:16.859Z,31.01
2023-02-13T07:08:51.572Z,31.08
2023-02-13T07:11:25.454Z,31.12
2023-02-13T07:13:57.568Z,31.17
2023-02-13T07:16:29.544Z,31.20
2023-02-13T07:19:01.549Z,31.24
2023-02-13T07:21:33.490Z,31.29
2023-02-13T07:24:07.994Z,31.31
2023-02-13T07:26:40.188Z,31.34
2023-02-13T07:29:12.558Z,31.39
2023-02-13T07:31:44.666Z,31.38
2023-02-13T07:34:16.606Z,31.36
2023-02-13T07:36:48.867Z,31.32
2023-02-13T07:39:20.823Z,31.29
2023-02-13T07:41:52.830Z,31.24
2023-02-13T07:44:27.557Z,31.17
2023-02-13T07:47:01.380Z,31.06
2023-02-13T07:49:33.470Z,30.81
2023-02-13T07:52:05.929Z,30.43
2023-02-13T07:54:47.732Z,30.10
2023-02-13T07:57:19.876Z,29.65
2023-02-13T07:59:51.828Z,29.15
2023-02-13T08:02:23.842Z,28.90
2023-02-13T08:04:55.872Z,28.80
2023-02-13T08:07:27.822Z,28.71
2023-02-13T08:10:18.362Z,28.73
2023-02-13T08:12:51.036Z,28.82
2023-02-13T08:15:26.287Z,28.89
2023-02-13T08:17:58.266Z,29.04
2023-02-13T08:20:30.277Z,29.17
2023-02-13T08:23:12.489Z,29.30
2023-02-13T08:25:44.453Z,29.47
2023-02-13T08:28:17.143Z,29.61
2023-02-13T08:30:49.095Z,29.74
2023-02-13T08:33:21.125Z,29.85
2023-02-13T08:35:52.987Z,30.00
2023-02-13T08:38:24.968Z,30.12
2023-02-13T08:40:57.607Z,30.19
2023-02-13T08:43:29.841Z,30.26
2023-02-13T08:46:01.818Z,30.33
2023-02-13T08:48:33.706Z,30.40
2023-02-13T08:51:08.028Z,30.42
2023-02-13T08:53:40.657Z,30.42
2023-02-13T08:56:12.616Z,30.31
2023-02-13T08:58:44.633Z,29.93
2023-02-13T09:01:17.338Z,29.60
2023-02-13T09:03:49.267Z,29.41
2023-02-13T09:06:22.030Z,29.19
2023-02-13T09:08:54.377Z,29.00
2023-02-13T09:11:26.502Z,28.83
2023-02-13T09:13:58.369Z,28.47
2023-02-13T09:16:30.294Z,27.78
2023-02-13T09:19:02.186Z,26.91
2023-02-13T09:21:34.165Z,26.07
2023-02-13T09:24:10.532Z,25.30
2023-02-13T09:26:42.431Z,24.79
2023-02-13T09:29:14.379Z,24.36
2023-02-13T09:31:46.373Z,24.36
2023-02-13T09:34:18.406Z,24.46
2023-02-13T09:36:54.468Z,24.62
2023-02-13T09:39:26.377Z,24.72
2023-02-13T09:41:58.837Z,24.82
2023-02-13T09:44:43.460Z,24.97
2023-02-13T09:47:39.815Z,25.07
2023-02-13T09:50:25.814Z,25.25
2023-02-13T09:52:59.064Z,25.37
2023-02-13T09:55:53.154Z,25.50
2023-02-13T09:58:48.541Z,25.69
2023-02-13T10:01:54.067Z,25.81
2023-02-13T10:04:43.149Z,25.97
2023-02-13T10:07:27.458Z,26.14
2023-02-13T10:10:28.542Z,26.29
2023-02-13T10:13:40.933Z,26.45
2023-02-13T10:16:54.201Z,26.67
2023-02-13T10:19:49.102Z,26.88
2023-02-13T10:22:39.361Z,27.04
2023-02-13T10:25:17.226Z,27.19
2023-02-13T10:28:11.310Z,27.36
2023-02-13T10:30:58.512Z,27.49
2023-02-13T10:33:41.215Z,27.59
2023-02-13T10:36:16.759Z,27.72
2023-02-13T10:39:06.275Z,27.82
2023-02-13T10:42:01.520Z,27.97
2023-02-13T10:44:48.743Z,28.06
2023-02-13T10:47:32.895Z,28.14
2023-02-13T10:50:20.622Z,28.26
2023-02-13T10:52:58.463Z,28.37
2023-02-13T10:56:08.077Z,28.42
2023-02-13T10:59:07.596Z,28.46
2023-02-13T11:01:45.802Z,28.57
2023-02-13T11:04:19.890Z,28.65
2023-02-13T11:07:00.641Z,28.73
2023-02-13T11:09:42.558Z,28.85
2023-02-13T11:12:32.316Z,28.94
2023-02-13T11:15:20.096Z,29.00
2023-02-13T11:17:54.584Z,29.10
2023-02-13T11:20:54.597Z,29.17
2023-02-13T11:23:29.640Z,29.27
2023-02-13T11:26:04.128Z,29.31
2023-02-13T11:28:47.328Z,29.35
2023-02-13T11:31:24.446Z,29.47
2023-02-13T11:33:59.140Z,29.48
2023-02-13T11:36:33.651Z,29.50
2023-02-13T11:39:17.534Z,29.60
2023-02-13T11:41:52.610Z,29.68
2023-02-13T11:44:27.785Z,29.75
2023-02-13T11:47:01.477Z,29.85
2023-02-13T11:49:44.601Z,29.91
2023-02-13T11:52:32.864Z,29.99
2023-02-13T11:55:25.488Z,30.06
2023-02-13T11:58:25.838Z,30.07
2023-02-13T12:01:15.914Z,30.07
2023-02-13T12:04:16.844Z,30.05
2023-02-13T12:06:59.023Z,30.07
2023-02-13T12:09:32.303Z,30.09
2023-02-13T12:12:06.534Z,30.15
2023-02-13T12:14:44.445Z,30.17
2023-02-13T12:17:30.836Z,30.27
2023-02-13T12:20:03.941Z,30.33
2023-02-13T12:23:10.594Z,30.38
2023-02-13T12:26:07.637Z,30.48
2023-02-13T12:28:51.760Z,30.51
2023-02-13T12:31:39.674Z,30.57
2023-02-13T12:34:49.444Z,30.60
2023-02-13T12:37:55.771Z,30.59
2023-02-13T12:40:36.927Z,30.61
2023-02-13T12:43:30.604Z,30.68
2023-02-13T12:46:31.592Z,30.77
2023-02-13T12:49:26.443Z,30.79
2023-02-13T12:52:25.176Z,30.90
2023-02-13T12:55:17.078Z,30.96
2023-02-13T12:58:33.468Z,31.00
2023-02-13T13:01:26.616Z,31.14
2023-02-13T13:04:19.766Z,31.18
2023-02-13T13:07:13.675Z,31.27
2023-02-13T13:10:04.491Z,31.28
2023-02-13T13:12:40.197Z,31.28
2023-02-13T13:15:14.937Z,31.29
2023-02-13T13:18:19.293Z,31.35
2023-02-13T13:21:15.899Z,31.38
2023-02-13T13:24:19.572Z,31.34
2023-02-13T13:26:54.441Z,31.18
2023-02-13T13:29:56.176Z,30.98
2023-02-13T13:32:29.294Z,30.77
2023-02-13T13:35:02.409Z,30.52
2023-02-13T13:38:04.183Z,30.29
2023-02-13T13:40:59.200Z,30.06
2023-02-13T13:43:57.855Z,29.81
2023-02-13T13:46:48.206Z,29.58
2023-02-13T13:49:42.974Z,29.35
2023-02-13T13:52:27.540Z,29.18
2023-02-13T13:55:02.635Z,29.06
2023-02-13T13:57:34.517Z,28.96
2023-02-13T14:00:09.941Z,28.94
2023-02-13T14:03:04.256Z,28.89
2023-02-13T14:05:56.483Z,28.82
2023-02-13T14:08:40.749Z,28.82
2023-02-13T14:11:34.487Z,28.81
2023-02-13T14:14:28.164Z,28.82
2023-02-13T14:17:04.459Z,28.81
2023-02-13T14:19:40.633Z,28.82
2023-02-13T14:22:34.676Z,28.83
2023-02-13T14:25:20.374Z,28.86
2023-02-13T14:28:00.759Z,28.91
2023-02-13T14:30:40.600Z,28.98
2023-02-13T14:33:28.799Z,29.05
2023-02-13T14:36:09.327Z,29.08
2023-02-13T14:38:42.049Z,29.12
2023-02-13T14:41:51.144Z,29.18
2023-02-13T14:44:41.950Z,29.22
2023-02-13T14:47:24.522Z,29.30
2023-02-13T14:49:58.022Z,29.37
2023-02-13T14:52:37.399Z,29.44
2023-02-13T14:55:17.291Z,29.50
2023-02-13T14:57:54.758Z,29.58
2023-02-13T15:00:31.956Z,29.67
2023-02-13T15:03:27.453Z,29.73
2023-02-13T15:06:06.281Z,29.81
2023-02-13T15:08:45.677Z,29.91
2023-02-13T15:11:39.359Z,30.00
2023-02-13T15:14:34.098Z,30.09
2023-02-13T15:17:21.516Z,30.15
2023-02-13T15:19:55.932Z,30.26
2023-02-13T15:22:37.610Z,30.34
2023-02-13T15:25:09.795Z,30.42
2023-02-13T15:27:43.616Z,30.50
2023-02-13T15:30:24.024Z,30.60
2023-02-13T15:33:01.140Z,30.68
2023-02-13T15:35:37.820Z,30.74
2023-02-13T15:38:20.925Z,30.83
2023-02-13T15:40:59.339Z,30.92
2023-02-13T15:43:37.793Z,31.00
2023-02-13T15:46:34.042Z,31.05
2023-02-13T15:49:08.999Z,31.18
2023-02-13T15:51:40.961Z,31.22
2023-02-13T15:54:25.213Z,31.30
2023-02-13T15:57:01.860Z,31.40
2023-02-13T15:59:40.146Z,31.45
2023-02-13T16:02:21.392Z,31.56
2023-02-13T16:04:54.876Z,31.66
2023-02-13T16:07:26.766Z,31.69
2023-02-13T16:10:15.714Z,31.75
2023-02-13T16:12:48.771Z,31.83
2023-02-13T16:15:22.438Z,31.88
2023-02-13T16:17:54.822Z,31.93
2023-02-13T16:20:29.210Z,32.02
2023-02-13T16:23:15.436Z,32.04
2023-02-13T16:25:48.686Z,32.16
2023-02-13T16:28:23.873Z,32.20
2023-02-13T16:31:03.148Z,32.25
2023-02-13T16:33:42.283Z,32.33
2023-02-13T16:36:14.145Z,32.37
2023-02-13T16:38:50.129Z,32.40
2023-02-13T16:41:30.956Z,32.47
2023-02-13T16:44:03.574Z,32.53
2023-02-13T16:46:42.510Z,32.57
2023-02-13T16:49:18.441Z,32.63
2023-02-13T16:52:17.641Z,32.66
2023-02-13T16:54:59.660Z,32.77
2023-02-13T16:57:34.986Z,32.82
2023-02-13T17:00:17.537Z,32.82
2023-02-13T17:02:50.887Z,32.92
2023-02-13T17:05:28.476Z,32.91
2023-02-13T17:08:01.774Z,32.99
2023-02-13T17:10:38.581Z,33.02
2023-02-13T17:13:13.094Z,33.05
2023-02-13T17:15:47.920Z,33.10
2023-02-13T17:18:19.833Z,33.13
2023-02-13T17:20:51.849Z,33.20
2023-02-13T17:23:24.769Z,33.25
2023-02-13T17:25:56.763Z,33.28
2023-02-13T17:28:30.617Z,33.31
2023-02-13T17:31:02.775Z,33.37
2023-02-13T17:33:35.789Z,33.43
2023-02-13T17:36:09.808Z,33.45
2023-02-13T17:38:41.736Z,33.51
2023-02-13T17:41:15.762Z,33.52
2023-02-13T17:43:47.742Z,33.59
2023-02-13T17:46:19.891Z,33.67
2023-02-13T17:48:51.855Z,33.70
2023-02-13T17:51:23.812Z,33.75
2023-02-13T17:53:56.558Z,33.78
2023-02-13T17:56:28.507Z,33.85
2023-02-13T17:59:00.420Z,33.88
2023-02-13T18:01:32.394Z,33.87
2023-02-13T18:04:04.891Z,33.88
2023-02-13T18:06:36.885Z,33.85
2023-02-13T18:09:08.763Z,33.76
2023-02-13T18:11:40.671Z,33.63
2023-02-13T18:14:12.584Z,33.52
2023-02-13T18:16:44.784Z,33.42
2023-02-13T18:19:16.694Z,33.26
2023-02-13T18:21:51.708Z,33.09
2023-02-13T18:24:28.996Z,32.86
2023-02-13T18:27:01.764Z,32.66
2023-02-13T18:29:37.729Z,32.45
2023-02-13T18:32:11.043Z,32.20
2023-02-13T18:34:43.192Z,32.01
2023-02-13T18:37:15.121Z,31.79
2023-02-13T18:39:47.040Z,31.61
2023-02-13T18:42:19.057Z,31.46
2023-02-13T18:44:51.054Z,31.37
2023-02-13T18:47:22.999Z,31.27
2023-02-13T18:49:54.893Z,31.17
2023-02-13T18:52:27.566Z,31.12
2023-02-13T18:54:59.551Z,31.06
2023-02-13T18:57:34.503Z,31.02
2023-02-13T19:00:07.362Z,30.97
2023-02-13T19:02:39.205Z,30.98
2023-02-13T19:05:11.145Z,30.95
2023-02-13T19:07:43.092Z,30.96
2023-02-13T19:10:15.844Z,30.96
2023-02-13T19:12:48.334Z,30.97
2023-02-13T19:15:20.432Z,30.97
2023-02-13T19:17:57.241Z,31.00
2023-02-13T19:20:29.300Z,31.02
2023-02-13T19:23:01.271Z,31.01
2023-02-13T19:25:37.971Z,31.03
2023-02-13T19:28:09.911Z,31.10
2023-02-13T19:30:42.020Z,31.10
2023-02-13T19:33:14.368Z,31.15
2023-02-13T19:35:57.215Z,31.19
2023-02-13T19:38:31.953Z,31.28
2023-02-13T19:41:08.375Z,31.30
2023-02-13T19:43:40.629Z,31.35
2023-02-13T19:46:14.298Z,31.39
2023-02-13T19:48:49.382Z,31.43
2023-02-13T19:51:30.898Z,31.48
2023-02-13T19:54:08.006Z,31.52
2023-02-13T19:56:40.424Z,31.59
2023-02-13T19:59:13.724Z,31.65
2023-02-13T20:01:46.032Z,31.69
2023-02-13T20:04:18.275Z,31.77
2023-02-13T20:06:50.986Z,31.78
2023-02-13T20:09:22.874Z,31.85
2023-02-13T20:11:54.825Z,31.90
2023-02-13T20:14:26.784Z,31.97
2023-02-13T20:16:58.926Z,32.01
2023-02-13T20:19:30.935Z,32.05
2023-02-13T20:22:02.843Z,32.11
2023-02-13T20:24:35.064Z,32.16
2023-02-13T20:27:07.012Z,32.22
2023-02-13T20:29:39.005Z,32.26
2023-02-13T20:32:11.806Z,32.36
2023-02-13T20:34:58.985Z,32.37
2023-02-13T20:37:32.777Z,32.46
2023-02-13T20:40:04.910Z,32.51
2023-02-13T20:42:36.928Z,32.56
2023-02-13T20:45:09.102Z,32.57
2023-02-13T20:47:43.056Z,32.65
2023-02-13T20:50:14.972Z,32.69
2023-02-13T20:52:46.902Z,32.74
2023-02-13T20:55:18.788Z,32.78
2023-02-13T20:57:50.727Z,32.82
2023-02-13T21:00:22.829Z,32.86
2023-02-13T21:02:54.857Z,32.90
2023-02-13T21:05:26.791Z,32.95
2023-02-13T21:07:58.730Z,32.99
2023-02-13T21:10:30.621Z,33.04
2023-02-13T21:13:02.566Z,33.09
2023-02-13T21:15:34.501Z,33.11
2023-02-13T21:18:06.411Z,33.17
2023-02-13T21:20:38.400Z,33.23
2023-02-13T21:23:10.326Z,33.28
2023-02-13T21:25:42.254Z,33.28
2023-02-13T21:28:14.193Z,33.35
2023-02-13T21:30:46.104Z,33.36
2023-02-13T21:33:18.054Z,33.43
2023-02-13T21:35:51.154Z,33.47
2023-02-13T21:38:24.306Z,33.54
2023-02-13T21:41:03.920Z,33.54
2023-02-13T21:43:37.909Z,33.62
2023-02-13T21:46:30.030Z,33.66
2023-02-13T21:49:06.402Z,33.76
2023-02-13T21:51:38.384Z,33.77
2023-02-13T21:54:11.589Z,33.75
2023-02-13T21:56:44.364Z,33.80
2023-02-13T21:59:17.133Z,33.85
2023-02-13T22:01:54.278Z,33.91
2023-02-13T22:04:26.457Z,33.94
2023-02-13T22:06:58.436Z,33.95
2023-02-13T22:09:30.318Z,34.03
2023-02-13T22:12:03.789Z,34.05
2023-02-13T22:14:35.634Z,34.07
2023-02-13T22:17:07.596Z,34.13
2023-02-13T22:19:39.513Z,34.20
2023-02-13T22:22:11.440Z,34.25
2023-02-13T22:24:43.345Z,34.27
2023-02-13T22:27:15.272Z,34.31
2023-02-13T22:29:47.234Z,34.38
2023-02-13T22:32:19.535Z,34.43
2023-02-13T22:34:51.577Z,34.48
2023-02-13T22:37:23.503Z,34.49
2023-02-13T22:39:55.357Z,34.52
2023-02-13T22:42:27.308Z,34.61
2023-02-13T22:44:59.181Z,34.65
2023-02-13T22:47:31.134Z,34.71
2023-02-13T22:50:03.005Z,34.78
2023-02-13T22:52:34.971Z,34.84
2023-02-13T22:55:06.984Z,34.93
2023-02-13T22:57:38.890Z,34.91
2023-02-13T23:00:13.032Z,35.00
2023-02-13T23:02:45.030Z,35.03
2023-02-13T23:05:17.961Z,35.11
2023-02-13T23:07:49.888Z,35.13
2023-02-13T23:10:23.174Z,35.15
2023-02-13T23:12:55.067Z,35.27
2023-02-13T23:15:27.336Z,35.27
2023-02-13T23:18:14.436Z,35.30
2023-02-13T23:20:46.318Z,35.36
2023-02-13T23:23:18.229Z,35.38
2023-02-13T23:25:50.080Z,35.43
2023-02-13T23:28:21.984Z,35.44
2023-02-13T23:30:53.968Z,35.52
2023-02-13T23:33:26.005Z,35.52
2023-02-13T23:35:57.912Z,35.59
2023-02-13T23:38:29.915Z,35.59
2023-02-13T23:41:11.028Z,35.66
2023-02-13T23:43:42.944Z,35.71
2023-02-13T23:46:14.897Z,35.72
2023-02-13T23:48:46.947Z,35.77
2023-02-13T23:51:18.988Z,35.75
2023-02-13T23:53:53.445Z,35.85
2023-02-13T23:56:25.525Z,35.84
2023-02-13T23:58:57.464Z,35.90
